createdAt,value
2017-09-24T00:02:50.753Z,10.20
2017-09-24T00:05:56.056Z,10.20
2017-09-24T00:09:01.244Z,10.10
2017-09-24T00:12:06.541Z,10.00
2017-09-24T00:15:11.804Z,10.00
2017-09-24T00:18:16.924Z,10.00
2017-09-24T00:21:21.644Z,10.00
2017-09-24T00:24:27.878Z,9.90
2017-09-24T00:27:32.791Z,9.90
2017-09-24T00:30:39.109Z,10.00
2017-09-24T00:33:44.732Z,10.00
2017-09-24T00:36:50.573Z,9.90
2017-09-24T00:39:55.799Z,10.00
2017-09-24T00:43:01.172Z,9.90
2017-09-24T00:46:06.512Z,9.90
2017-09-24T00:49:12.760Z,9.90
2017-09-24T00:52:19.309Z,9.80
2017-09-24T00:55:24.447Z,9.70
2017-09-24T00:58:30.099Z,9.70
2017-09-24T01:01:35.663Z,9.60
2017-09-24T01:04:41.423Z,9.70
2017-09-24T01:07:48.283Z,9.70
2017-09-24T01:10:53.941Z,9.60
2017-09-24T01:14:00.252Z,9.50
2017-09-24T01:17:04.985Z,9.40
2017-09-24T01:20:10.708Z,9.40
2017-09-24T01:23:17.247Z,9.40
2017-09-24T01:26:22.575Z,9.40
2017-09-24T01:29:27.601Z,9.30
2017-09-24T01:32:32.629Z,9.30
2017-09-24T01:35:37.803Z,9.10
2017-09-24T01:38:44.295Z,9.00
2017-09-24T01:41:49.077Z,9.00
2017-09-24T01:44:54.843Z,9.00
2017-09-24T01:48:00.891Z,8.70
2017-09-24T01:51:07.683Z,8.70
2017-09-24T01:54:17.139Z,8.70
2017-09-24T01:57:22.928Z,8.50
2017-09-24T02:00:28.342Z,8.50
2017-09-24T02:03:33.741Z,8.60
2017-09-24T02:06:39.381Z,8.70
2017-09-24T02:09:45.837Z,8.90
2017-09-24T02:12:51.160Z,8.90
2017-09-24T02:15:56.379Z,8.90
2017-09-24T02:19:02.338Z,8.80
2017-09-24T02:22:07.856Z,8.70
2017-09-24T02:25:14.096Z,8.60
2017-09-24T02:28:20.619Z,8.60
2017-09-24T02:31:27.141Z,8.70
2017-09-24T02:34:32.454Z,8.70
2017-09-24T02:37:37.852Z,8.70
2017-09-24T02:40:43.858Z,9.00
2017-09-24T02:43:49.468Z,8.90
2017-09-24T02:46:55.122Z,9.00
2017-09-24T02:50:01.757Z,8.90
2017-09-24T02:53:07.464Z,9.00
2017-09-24T02:56:12.332Z,8.90
2017-09-24T02:59:17.302Z,8.90
2017-09-24T03:02:23.199Z,8.90
2017-09-24T03:05:28.535Z,9.10
2017-09-24T03:08:34.075Z,9.20
2017-09-24T03:11:38.948Z,9.00
2017-09-24T03:14:50.755Z,8.90
2017-09-24T03:17:57.851Z,9.00
2017-09-24T03:21:02.696Z,9.00
2017-09-24T03:24:08.046Z,9.10
2017-09-24T03:27:13.725Z,9.10
2017-09-24T03:30:19.701Z,9.00
2017-09-24T03:33:24.419Z,9.00
2017-09-24T03:36:29.324Z,8.80
2017-09-24T03:39:34.399Z,8.70
2017-09-24T03:42:39.644Z,8.60
2017-09-24T03:45:44.843Z,8.50
2017-09-24T03:48:50.531Z,8.40
2017-09-24T03:51:56.208Z,8.40
2017-09-24T03:55:01.061Z,8.40
2017-09-24T03:58:06.355Z,8.30
2017-09-24T04:01:11.588Z,8.30
2017-09-24T04:04:16.559Z,8.30
2017-09-24T04:07:22.236Z,8.20
2017-09-24T04:10:27.171Z,8.20
2017-09-24T04:13:33.471Z,8.20
2017-09-24T04:16:38.491Z,8.20
2017-09-24T04:19:43.407Z,8.20
2017-09-24T04:22:48.925Z,8.10
2017-09-24T04:25:53.941Z,8.10
2017-09-24T04:29:00.132Z,8.20
2017-09-24T04:32:05.119Z,8.20
2017-09-24T04:35:10.459Z,8.30
2017-09-24T04:38:17.772Z,8.30
2017-09-24T04:41:22.980Z,8.20
2017-09-24T04:44:28.605Z,8.20
2017-09-24T04:47:33.792Z,8.30
2017-09-24T04:50:41.622Z,8.20
2017-09-24T04:53:49.027Z,8.00
2017-09-24T04:56:54.262Z,7.90
2017-09-24T04:59:59.779Z,7.80
2017-09-24T05:03:05.037Z,7.70
2017-09-24T05:06:10.479Z,7.80
2017-09-24T05:09:16.106Z,7.70
2017-09-24T05:12:21.995Z,7.60
2017-09-24T05:15:27.216Z,7.60
2017-09-24T05:18:32.119Z,7.50
2017-09-24T05:21:37.177Z,7.50
2017-09-24T05:24:43.632Z,7.50
2017-09-24T05:27:49.295Z,7.40
2017-09-24T05:30:54.913Z,7.40
2017-09-24T05:33:59.763Z,7.40
2017-09-24T05:37:04.728Z,7.40
2017-09-24T05:40:10.519Z,7.30
2017-09-24T05:43:15.607Z,7.30
2017-09-24T05:46:21.539Z,7.30
2017-09-24T05:49:27.211Z,7.30
2017-09-24T05:52:32.174Z,7.30
2017-09-24T05:55:38.448Z,7.40
2017-09-24T05:58:43.632Z,7.40
2017-09-24T06:01:48.808Z,7.60
2017-09-24T06:04:55.157Z,7.80
2017-09-24T06:08:00.982Z,8.10
2017-09-24T06:11:09.868Z,8.10
2017-09-24T06:14:15.493Z,8.10
2017-09-24T06:17:22.253Z,8.10
2017-09-24T06:20:29.124Z,8.30
2017-09-24T06:23:34.304Z,8.30
2017-09-24T06:26:39.776Z,8.40
2017-09-24T06:29:44.504Z,8.60
2017-09-24T06:32:49.395Z,8.70
2017-09-24T06:35:54.552Z,8.90
2017-09-24T06:38:59.217Z,9.10
2017-09-24T06:42:05.339Z,9.20
2017-09-24T06:45:11.281Z,9.50
2017-09-24T06:48:17.676Z,9.50
2017-09-24T06:51:23.179Z,9.70
2017-09-24T06:54:28.648Z,9.80
2017-09-24T06:57:34.915Z,10.30
2017-09-24T07:00:39.576Z,10.20
2017-09-24T07:03:45.142Z,10.60
2017-09-24T07:06:49.888Z,10.60
2017-09-24T07:09:54.743Z,10.80
2017-09-24T07:13:00.307Z,10.90
2017-09-24T07:16:05.557Z,11.00
2017-09-24T07:19:10.719Z,11.00
2017-09-24T07:22:17.649Z,11.10
2017-09-24T07:25:24.224Z,11.30
2017-09-24T07:28:30.814Z,11.30
2017-09-24T07:31:36.425Z,11.40
2017-09-24T07:34:41.952Z,11.60
2017-09-24T07:37:47.273Z,11.60
2017-09-24T07:40:52.283Z,11.60
2017-09-24T07:43:57.030Z,11.80
2017-09-24T07:47:04.341Z,12.10
2017-09-24T07:50:09.861Z,12.10
2017-09-24T07:53:14.760Z,12.30
2017-09-24T07:56:20.244Z,12.50
2017-09-24T07:59:25.178Z,12.40
2017-09-24T08:02:31.298Z,12.70
2017-09-24T08:05:37.051Z,12.70
2017-09-24T08:08:42.083Z,12.80
2017-09-24T08:11:47.908Z,12.80
2017-09-24T08:14:52.996Z,12.90
2017-09-24T08:17:59.612Z,12.80
2017-09-24T08:21:05.058Z,12.90
2017-09-24T08:24:11.480Z,13.20
2017-09-24T08:27:16.636Z,13.20
2017-09-24T08:30:22.557Z,13.50
2017-09-24T08:33:27.656Z,13.50
2017-09-24T08:36:32.640Z,13.60
2017-09-24T08:39:38.472Z,13.80
2017-09-24T08:42:43.709Z,13.80
2017-09-24T08:45:48.665Z,14.00
2017-09-24T08:48:54.374Z,14.10
2017-09-24T08:51:59.112Z,14.20
2017-09-24T08:55:04.515Z,14.40
2017-09-24T08:58:11.087Z,14.60
2017-09-24T09:01:16.783Z,14.80
2017-09-24T09:04:21.835Z,15.00
2017-09-24T09:07:27.430Z,15.30
2017-09-24T09:10:32.365Z,15.40
2017-09-24T09:13:37.591Z,15.40
2017-09-24T09:16:42.448Z,15.40
2017-09-24T09:19:47.879Z,15.70
2017-09-24T09:22:53.420Z,15.70
2017-09-24T09:25:59.456Z,16.10
2017-09-24T09:29:04.410Z,16.10
2017-09-24T09:32:09.629Z,16.00
2017-09-24T09:35:33.675Z,16.00
2017-09-24T09:38:39.340Z,16.10
2017-09-24T09:41:46.983Z,16.60
2017-09-24T09:45:05.020Z,16.60
2017-09-24T09:48:10.105Z,16.80
2017-09-24T09:51:15.508Z,16.90
2017-09-24T09:54:20.628Z,17.00
2017-09-24T09:57:26.253Z,17.00
2017-09-24T10:00:31.494Z,17.10
2017-09-24T10:03:36.681Z,17.10
2017-09-24T10:06:53.484Z,16.70
2017-09-24T10:10:10.436Z,16.70
2017-09-24T10:13:16.086Z,16.80
2017-09-24T10:16:22.080Z,17.00
2017-09-24T10:19:27.699Z,17.00
2017-09-24T10:22:33.604Z,17.10
2017-09-24T10:25:38.836Z,17.00
2017-09-24T10:28:56.177Z,16.70
2017-09-24T10:32:14.267Z,16.80
2017-09-24T10:35:19.521Z,16.80
2017-09-24T10:38:25.960Z,16.60
2017-09-24T10:41:31.076Z,16.50
2017-09-24T10:44:37.859Z,16.50
2017-09-24T10:47:43.439Z,16.50
2017-09-24T10:50:49.430Z,16.60
2017-09-24T10:53:55.244Z,16.90
2017-09-24T10:57:00.758Z,16.90
2017-09-24T11:00:05.824Z,16.90
2017-09-24T11:03:11.109Z,17.20
2017-09-24T11:06:15.916Z,17.60
2017-09-24T11:09:21.343Z,18.00
2017-09-24T11:12:26.867Z,17.90
2017-09-24T11:15:31.889Z,17.80
2017-09-24T11:18:37.464Z,18.00
2017-09-24T11:21:43.228Z,18.00
2017-09-24T11:24:47.914Z,18.20
2017-09-24T11:27:53.396Z,18.20
2017-09-24T11:30:58.292Z,18.40
2017-09-24T11:34:04.064Z,18.40
2017-09-24T11:37:09.679Z,18.60
2017-09-24T11:40:15.223Z,18.90
2017-09-24T11:43:20.765Z,18.80
2017-09-24T11:46:25.900Z,18.60
2017-09-24T11:49:31.690Z,18.50
2017-09-24T11:52:37.187Z,18.60
2017-09-24T11:55:42.891Z,18.80
2017-09-24T11:58:48.224Z,18.70
2017-09-24T12:01:53.108Z,18.60
2017-09-24T12:05:00.744Z,18.70
2017-09-24T12:08:05.624Z,18.70
2017-09-24T12:11:11.839Z,18.90
2017-09-24T12:14:18.348Z,18.80
2017-09-24T12:17:23.248Z,18.80
2017-09-24T12:20:28.689Z,18.80
2017-09-24T12:23:34.679Z,18.90
2017-09-24T12:26:39.780Z,18.90
2017-09-24T12:29:44.825Z,18.90
2017-09-24T12:32:50.121Z,18.90
2017-09-24T12:35:55.360Z,18.90
2017-09-24T12:39:01.031Z,18.70
2017-09-24T12:42:06.117Z,18.70
2017-09-24T12:45:11.556Z,18.80
2017-09-24T12:48:16.340Z,18.90
2017-09-24T12:51:22.188Z,18.80
2017-09-24T12:54:27.732Z,18.80
2017-09-24T12:57:33.324Z,18.80
2017-09-24T13:00:39.148Z,19.10
2017-09-24T13:03:44.563Z,19.10
2017-09-24T13:06:49.652Z,19.10
2017-09-24T13:09:54.364Z,19.00
2017-09-24T13:12:59.935Z,19.00
2017-09-24T13:16:04.763Z,19.10
2017-09-24T13:19:10.584Z,19.20
2017-09-24T13:22:15.172Z,19.20
2017-09-24T13:25:20.295Z,19.40
2017-09-24T13:28:26.014Z,19.50
2017-09-24T13:31:30.938Z,19.80
2017-09-24T13:34:35.915Z,20.00
2017-09-24T13:37:40.811Z,19.90
2017-09-24T13:40:46.311Z,19.90
2017-09-24T13:43:52.100Z,20.10
2017-09-24T13:46:57.619Z,20.10
2017-09-24T13:50:02.220Z,19.90
2017-09-24T13:53:07.099Z,20.00
2017-09-24T13:56:13.421Z,20.00
2017-09-24T13:59:19.343Z,20.00
2017-09-24T14:02:24.596Z,20.10
2017-09-24T14:05:29.983Z,20.20
2017-09-24T14:08:35.919Z,19.80
2017-09-24T14:11:41.464Z,20.00
2017-09-24T14:14:46.313Z,19.80
2017-09-24T14:17:51.818Z,19.50
2017-09-24T14:20:58.024Z,19.20
2017-09-24T14:24:02.719Z,19.10
2017-09-24T14:27:08.079Z,19.20
2017-09-24T14:30:13.011Z,19.20
2017-09-24T14:33:18.097Z,19.20
2017-09-24T14:36:23.135Z,19.10
2017-09-24T14:39:27.919Z,18.90
2017-09-24T14:42:33.056Z,18.70
2017-09-24T14:45:38.817Z,18.50
2017-09-24T14:48:44.666Z,18.50
2017-09-24T14:51:50.378Z,18.50
2017-09-24T14:54:55.455Z,18.50
2017-09-24T14:58:01.269Z,18.50
2017-09-24T15:01:06.451Z,18.40
2017-09-24T15:04:11.888Z,18.40
2017-09-24T15:07:17.336Z,18.30
2017-09-24T15:10:22.711Z,18.20
2017-09-24T15:13:27.904Z,18.10
2017-09-24T15:16:32.796Z,18.00
2017-09-24T15:19:37.901Z,18.00
2017-09-24T15:22:44.051Z,17.90
2017-09-24T15:25:49.046Z,17.80
2017-09-24T15:28:53.959Z,17.90
2017-09-24T15:32:00.039Z,17.60
2017-09-24T15:35:04.993Z,17.60
2017-09-24T15:38:10.294Z,17.60
2017-09-24T15:41:15.820Z,17.60
2017-09-24T15:44:21.679Z,17.50
2017-09-24T15:47:26.599Z,17.40
2017-09-24T15:50:32.416Z,17.40
2017-09-24T15:53:37.414Z,17.30
2017-09-24T15:56:42.296Z,17.20
2017-09-24T15:59:47.899Z,17.00
2017-09-24T16:02:53.016Z,17.00
2017-09-24T16:05:58.544Z,16.90
2017-09-24T16:09:03.302Z,16.80
2017-09-24T16:12:08.653Z,16.70
2017-09-24T16:15:14.067Z,16.60
2017-09-24T16:18:19.579Z,16.50
2017-09-24T16:21:24.897Z,16.50
2017-09-24T16:24:30.411Z,16.40
2017-09-24T16:27:36.211Z,16.30
2017-09-24T16:30:41.943Z,16.20
2017-09-24T16:33:48.524Z,16.20
2017-09-24T16:36:56.672Z,16.20
2017-09-24T16:40:02.077Z,16.10
2017-09-24T16:43:08.228Z,16.00
2017-09-24T16:46:13.971Z,16.00
2017-09-24T16:49:19.328Z,16.00
2017-09-24T16:52:24.472Z,15.90
2017-09-24T16:55:29.844Z,15.90
2017-09-24T16:58:36.133Z,15.70
2017-09-24T17:01:41.303Z,15.70
2017-09-24T17:04:47.543Z,15.60
2017-09-24T17:07:52.471Z,15.60
2017-09-24T17:10:58.092Z,15.60
2017-09-24T17:14:04.192Z,15.50
2017-09-24T17:17:17.657Z,15.50
2017-09-24T17:20:24.033Z,15.40
2017-09-24T17:23:29.604Z,15.40
2017-09-24T17:26:34.943Z,15.40
2017-09-24T17:29:39.680Z,15.30
2017-09-24T17:32:45.893Z,15.20
2017-09-24T17:35:51.384Z,15.20
2017-09-24T17:38:56.788Z,15.10
2017-09-24T17:42:02.125Z,15.10
2017-09-24T17:45:07.236Z,15.00
2017-09-24T17:48:12.031Z,15.00
2017-09-24T17:51:17.793Z,14.80
2017-09-24T17:54:22.915Z,14.80
2017-09-24T17:57:27.716Z,14.70
2017-09-24T18:00:33.053Z,14.60
2017-09-24T18:03:39.372Z,14.50
2017-09-24T18:06:44.483Z,14.40
2017-09-24T18:09:49.651Z,14.40
2017-09-24T18:12:55.076Z,14.40
2017-09-24T18:16:00.586Z,14.40
2017-09-24T18:19:06.258Z,14.40
2017-09-24T18:22:11.844Z,14.30
2017-09-24T18:25:17.370Z,14.30
2017-09-24T18:28:22.232Z,14.30
2017-09-24T18:31:27.716Z,14.30
2017-09-24T18:34:34.392Z,14.20
2017-09-24T18:37:40.482Z,14.20
2017-09-24T18:40:45.576Z,14.20
2017-09-24T18:43:50.945Z,14.20
2017-09-24T18:46:57.313Z,14.10
2017-09-24T18:50:03.171Z,14.10
2017-09-24T18:53:08.084Z,14.10
2017-09-24T18:56:12.851Z,14.10
2017-09-24T18:59:18.441Z,14.00
2017-09-24T19:02:24.009Z,14.00
2017-09-24T19:05:29.259Z,14.00
2017-09-24T19:08:34.808Z,13.90
2017-09-24T19:11:39.864Z,13.90
2017-09-24T19:14:45.355Z,13.80
2017-09-24T19:17:50.291Z,13.80
2017-09-24T19:20:55.649Z,13.70
2017-09-24T19:24:00.825Z,13.80
2017-09-24T19:27:05.624Z,13.70
2017-09-24T19:30:11.205Z,13.70
2017-09-24T19:33:16.456Z,13.60
2017-09-24T19:36:22.804Z,13.50
2017-09-24T19:39:28.567Z,13.40
2017-09-24T19:42:34.132Z,13.30
2017-09-24T19:45:38.984Z,13.30
2017-09-24T19:48:44.522Z,13.40
2017-09-24T19:51:49.724Z,13.30
2017-09-24T19:54:55.144Z,13.30
2017-09-24T19:58:00.536Z,13.10
2017-09-24T20:01:05.756Z,13.00
2017-09-24T20:04:10.708Z,12.80
2017-09-24T20:07:16.075Z,12.70
2017-09-24T20:10:20.884Z,12.60
2017-09-24T20:13:25.785Z,12.50
2017-09-24T20:16:31.222Z,12.30
2017-09-24T20:19:35.908Z,12.20
2017-09-24T20:22:40.889Z,12.20
2017-09-24T20:25:46.279Z,12.20
2017-09-24T20:28:51.407Z,12.10
2017-09-24T20:31:57.365Z,12.10
2017-09-24T20:35:03.410Z,11.80
2017-09-24T20:38:08.748Z,11.80
2017-09-24T20:41:14.072Z,11.70
2017-09-24T20:44:18.927Z,11.60
2017-09-24T20:47:24.183Z,11.60
2017-09-24T20:50:29.422Z,11.50
2017-09-24T20:53:35.685Z,11.50
2017-09-24T20:56:40.759Z,11.50
2017-09-24T20:59:46.303Z,11.50
2017-09-24T21:02:51.320Z,11.40
2017-09-24T21:05:56.303Z,11.30
2017-09-24T21:09:01.697Z,11.20
2017-09-24T21:12:07.105Z,11.10
2017-09-24T21:15:12.546Z,11.10
2017-09-24T21:18:17.651Z,11.10
2017-09-24T21:21:23.371Z,11.10
2017-09-24T21:24:29.820Z,11.20
2017-09-24T21:27:34.839Z,11.20
2017-09-24T21:30:40.601Z,11.20
2017-09-24T21:33:45.743Z,11.20
2017-09-24T21:36:50.991Z,11.10
2017-09-24T21:39:56.656Z,11.10
2017-09-24T21:43:02.203Z,11.00
2017-09-24T21:46:07.615Z,10.90
2017-09-24T21:49:12.944Z,10.90
2017-09-24T21:52:18.455Z,10.90
2017-09-24T21:55:23.351Z,10.80
2017-09-24T21:58:28.644Z,10.70
2017-09-24T22:01:34.352Z,10.70
2017-09-24T22:04:39.275Z,10.70
2017-09-24T22:07:44.480Z,10.60
2017-09-24T22:10:50.781Z,10.50
2017-09-24T22:13:55.567Z,10.50
2017-09-24T22:17:01.196Z,10.30
2017-09-24T22:20:06.265Z,10.30
2017-09-24T22:23:12.257Z,10.20
2017-09-24T22:26:18.438Z,10.00
2017-09-24T22:29:24.538Z,9.90
2017-09-24T22:32:29.623Z,10.00
2017-09-24T22:35:35.103Z,10.00
2017-09-24T22:38:40.081Z,10.00
2017-09-24T22:41:45.513Z,10.00
2017-09-24T22:44:51.752Z,10.10
2017-09-24T22:47:57.283Z,10.00
2017-09-24T22:51:02.947Z,10.20
2017-09-24T22:54:08.243Z,10.20
2017-09-24T22:57:13.710Z,10.30
2017-09-24T23:00:18.995Z,10.30
2017-09-24T23:03:24.953Z,10.40
2017-09-24T23:06:31.380Z,10.30
2017-09-24T23:09:36.440Z,10.30
2017-09-24T23:12:41.639Z,10.20
2017-09-24T23:15:47.177Z,10.30
2017-09-24T23:18:52.579Z,10.20
2017-09-24T23:21:57.884Z,10.20
2017-09-24T23:25:03.594Z,10.10
2017-09-24T23:28:08.666Z,10.10
2017-09-24T23:31:14.820Z,10.20
2017-09-24T23:34:20.201Z,10.20
2017-09-24T23:37:26.096Z,10.10
2017-09-24T23:40:31.703Z,10.00
2017-09-24T23:43:37.344Z,10.00
2017-09-24T23:46:42.758Z,9.90
2017-09-24T23:49:49.095Z,9.80
2017-09-24T23:52:54.369Z,9.80
2017-09-24T23:55:59.695Z,9.70
2017-09-24T23:59:05.254Z,9.70
